sensor_id;sensor_type;location;lat;lon;timestamp;P1;durP1;ratioP1;P2;durP2;ratioP2
24301;SDS011;12421;49.732;20.078;2022-12-15T00:09:41;149.50;;;77.20;;
24301;SDS011;12421;49.732;20.078;2022-12-15T00:20:04;151.70;;;79.90;;
24301;SDS011;12421;49.732;20.078;2022-12-15T00:30:27;128.40;;;67.30;;
24301;SDS011;12421;49.732;20.078;2022-12-15T00:40:52;123.40;;;62.60;;
24301;SDS011;12421;49.732;20.078;2022-12-15T00:51:01;145.40;;;77.50;;
24301;SDS011;12421;49.732;20.078;2022-12-15T01:01:06;144.70;;;75.80;;
24301;SDS011;12421;49.732;20.078;2022-12-15T01:11:32;143.70;;;74.30;;
24301;SDS011;12421;49.732;20.078;2022-12-15T01:21:55;123.80;;;65.20;;
24301;SDS011;12421;49.732;20.078;2022-12-15T01:31:59;132.90;;;69.00;;
24301;SDS011;12421;49.732;20.078;2022-12-15T01:42:03;121.00;;;63.40;;
24301;SDS011;12421;49.732;20.078;2022-12-15T01:52:07;108.00;;;59.00;;
24301;SDS011;12421;49.732;20.078;2022-12-15T02:02:13;108.90;;;57.80;;
24301;SDS011;12421;49.732;20.078;2022-12-15T02:12:27;97.10;;;51.40;;
24301;SDS011;12421;49.732;20.078;2022-12-15T02:43:04;89.60;;;48.70;;
24301;SDS011;12421;49.732;20.078;2022-12-15T03:03:25;79.90;;;45.10;;
24301;SDS011;12421;49.732;20.078;2022-12-15T03:13:32;87.80;;;46.20;;
24301;SDS011;12421;49.732;20.078;2022-12-15T03:23:36;77.40;;;40.90;;
24301;SDS011;12421;49.732;20.078;2022-12-15T03:33:40;87.70;;;47.60;;
24301;SDS011;12421;49.732;20.078;2022-12-15T03:43:44;78.40;;;45.00;;
24301;SDS011;12421;49.732;20.078;2022-12-15T03:53:52;73.90;;;42.40;;
24301;SDS011;12421;49.732;20.078;2022-12-15T04:03:57;81.50;;;45.00;;
24301;SDS011;12421;49.732;20.078;2022-12-15T04:14:03;69.30;;;41.80;;
24301;SDS011;12421;49.732;20.078;2022-12-15T04:24:07;68.60;;;39.90;;
24301;SDS011;12421;49.732;20.078;2022-12-15T04:34:30;73.10;;;40.80;;
24301;SDS011;12421;49.732;20.078;2022-12-15T04:44:53;70.60;;;41.10;;
24301;SDS011;12421;49.732;20.078;2022-12-15T04:55:23;77.80;;;41.40;;
24301;SDS011;12421;49.732;20.078;2022-12-15T05:05:45;89.80;;;44.80;;
24301;SDS011;12421;49.732;20.078;2022-12-15T05:16:08;78.00;;;43.60;;
24301;SDS011;12421;49.732;20.078;2022-12-15T05:26:31;80.20;;;44.50;;
24301;SDS011;12421;49.732;20.078;2022-12-15T05:36:56;84.10;;;44.90;;
24301;SDS011;12421;49.732;20.078;2022-12-15T05:47:01;77.90;;;45.40;;
24301;SDS011;12421;49.732;20.078;2022-12-15T05:57:07;93.10;;;53.10;;
24301;SDS011;12421;49.732;20.078;2022-12-15T06:07:11;102.40;;;57.80;;
24301;SDS011;12421;49.732;20.078;2022-12-15T06:17:15;137.30;;;73.70;;
24301;SDS011;12421;49.732;20.078;2022-12-15T06:27:20;124.50;;;68.30;;
24301;SDS011;12421;49.732;20.078;2022-12-15T06:37:24;127.30;;;72.00;;
24301;SDS011;12421;49.732;20.078;2022-12-15T06:47:28;118.50;;;66.20;;
24301;SDS011;12421;49.732;20.078;2022-12-15T06:57:32;120.10;;;70.40;;
24301;SDS011;12421;49.732;20.078;2022-12-15T07:07:36;123.70;;;70.80;;
24301;SDS011;12421;49.732;20.078;2022-12-15T07:17:40;138.40;;;73.20;;
24301;SDS011;12421;49.732;20.078;2022-12-15T07:27:44;107.60;;;61.70;;
24301;SDS011;12421;49.732;20.078;2022-12-15T07:37:49;111.10;;;61.10;;
24301;SDS011;12421;49.732;20.078;2022-12-15T07:47:53;124.40;;;70.70;;
24301;SDS011;12421;49.732;20.078;2022-12-15T07:57:58;127.50;;;74.40;;
24301;SDS011;12421;49.732;20.078;2022-12-15T08:08:02;138.10;;;80.90;;
24301;SDS011;12421;49.732;20.078;2022-12-15T08:18:06;139.60;;;74.70;;
24301;SDS011;12421;49.732;20.078;2022-12-15T08:28:11;134.20;;;79.30;;
24301;SDS011;12421;49.732;20.078;2022-12-15T08:38:15;130.50;;;76.90;;
24301;SDS011;12421;49.732;20.078;2022-12-15T08:48:20;115.80;;;67.70;;
24301;SDS011;12421;49.732;20.078;2022-12-15T08:58:24;108.20;;;64.40;;
24301;SDS011;12421;49.732;20.078;2022-12-15T09:08:27;105.40;;;61.90;;
24301;SDS011;12421;49.732;20.078;2022-12-15T09:18:33;91.60;;;53.30;;
24301;SDS011;12421;49.732;20.078;2022-12-15T09:28:37;85.90;;;51.90;;
24301;SDS011;12421;49.732;20.078;2022-12-15T09:38:42;151.50;;;96.20;;
24301;SDS011;12421;49.732;20.078;2022-12-15T09:48:47;101.70;;;62.00;;
24301;SDS011;12421;49.732;20.078;2022-12-15T09:59:02;83.10;;;52.10;;
24301;SDS011;12421;49.732;20.078;2022-12-15T10:09:17;112.90;;;73.70;;
24301;SDS011;12421;49.732;20.078;2022-12-15T10:19:36;95.20;;;53.80;;
24301;SDS011;12421;49.732;20.078;2022-12-15T10:29:45;87.10;;;51.20;;
24301;SDS011;12421;49.732;20.078;2022-12-15T10:39:57;68.80;;;42.40;;
24301;SDS011;12421;49.732;20.078;2022-12-15T10:50:20;67.80;;;40.40;;
24301;SDS011;12421;49.732;20.078;2022-12-15T11:00:28;73.40;;;45.50;;
24301;SDS011;12421;49.732;20.078;2022-12-15T11:10:34;68.40;;;42.70;;
24301;SDS011;12421;49.732;20.078;2022-12-15T11:21:01;80.00;;;49.60;;
24301;SDS011;12421;49.732;20.078;2022-12-15T12:12:59;82.20;;;45.30;;
24301;SDS011;12421;49.732;20.078;2022-12-15T12:33:48;74.50;;;42.70;;
24301;SDS011;12421;49.732;20.078;2022-12-15T12:43:59;82.10;;;47.00;;
24301;SDS011;12421;49.732;20.078;2022-12-15T13:04:41;70.90;;;38.20;;
24301;SDS011;12421;49.732;20.078;2022-12-15T13:14:52;78.90;;;42.70;;
24301;SDS011;12421;49.732;20.078;2022-12-15T13:24:57;74.50;;;42.60;;
24301;SDS011;12421;49.732;20.078;2022-12-15T13:45:21;83.10;;;43.50;;
24301;SDS011;12421;49.732;20.078;2022-12-15T13:55:45;103.90;;;48.60;;
24301;SDS011;12421;49.732;20.078;2022-12-15T14:06:01;75.40;;;38.70;;
24301;SDS011;12421;49.732;20.078;2022-12-15T14:16:18;86.70;;;45.60;;
24301;SDS011;12421;49.732;20.078;2022-12-15T14:26:25;81.00;;;42.70;;
24301;SDS011;12421;49.732;20.078;2022-12-15T14:36:34;79.80;;;41.50;;
24301;SDS011;12421;49.732;20.078;2022-12-15T14:46:39;90.40;;;47.10;;
24301;SDS011;12421;49.732;20.078;2022-12-15T14:56:55;83.80;;;44.90;;
24301;SDS011;12421;49.732;20.078;2022-12-15T15:07:03;81.20;;;41.80;;
24301;SDS011;12421;49.732;20.078;2022-12-15T15:37:27;90.60;;;43.80;;
24301;SDS011;12421;49.732;20.078;2022-12-15T15:47:31;74.30;;;39.30;;
24301;SDS011;12421;49.732;20.078;2022-12-15T15:57:36;94.20;;;47.70;;
24301;SDS011;12421;49.732;20.078;2022-12-15T16:07:40;92.40;;;46.50;;
24301;SDS011;12421;49.732;20.078;2022-12-15T16:17:46;122.30;;;58.10;;
24301;SDS011;12421;49.732;20.078;2022-12-15T16:27:50;83.30;;;39.70;;
24301;SDS011;12421;49.732;20.078;2022-12-15T16:37:54;89.70;;;48.00;;
24301;SDS011;12421;49.732;20.078;2022-12-15T16:47:59;76.80;;;39.90;;
24301;SDS011;12421;49.732;20.078;2022-12-15T16:58:04;90.40;;;45.50;;
24301;SDS011;12421;49.732;20.078;2022-12-15T17:08:16;105.20;;;51.10;;
24301;SDS011;12421;49.732;20.078;2022-12-15T17:18:31;112.60;;;54.90;;
24301;SDS011;12421;49.732;20.078;2022-12-15T17:28:36;119.60;;;55.60;;
24301;SDS011;12421;49.732;20.078;2022-12-15T17:38:40;96.50;;;49.30;;
24301;SDS011;12421;49.732;20.078;2022-12-15T17:48:45;118.20;;;56.10;;
24301;SDS011;12421;49.732;20.078;2022-12-15T17:58:50;114.00;;;57.30;;
24301;SDS011;12421;49.732;20.078;2022-12-15T18:08:54;119.40;;;60.80;;
24301;SDS011;12421;49.732;20.078;2022-12-15T18:19:01;84.60;;;40.60;;
24301;SDS011;12421;49.732;20.078;2022-12-15T18:29:12;95.20;;;48.30;;
24301;SDS011;12421;49.732;20.078;2022-12-15T18:39:21;97.30;;;50.50;;
24301;SDS011;12421;49.732;20.078;2022-12-15T18:49:27;132.90;;;63.70;;
24301;SDS011;12421;49.732;20.078;2022-12-15T18:59:32;119.60;;;63.10;;
24301;SDS011;12421;49.732;20.078;2022-12-15T19:09:36;124.70;;;66.50;;
24301;SDS011;12421;49.732;20.078;2022-12-15T19:19:41;151.40;;;71.00;;
24301;SDS011;12421;49.732;20.078;2022-12-15T19:30:14;138.10;;;67.80;;
24301;SDS011;12421;49.732;20.078;2022-12-15T19:40:23;132.90;;;65.80;;
24301;SDS011;12421;49.732;20.078;2022-12-15T19:50:34;116.50;;;62.10;;
24301;SDS011;12421;49.732;20.078;2022-12-15T20:00:40;157.80;;;75.90;;
24301;SDS011;12421;49.732;20.078;2022-12-15T20:10:49;129.70;;;70.30;;
24301;SDS011;12421;49.732;20.078;2022-12-15T20:20:55;118.90;;;62.20;;
24301;SDS011;12421;49.732;20.078;2022-12-15T20:31:02;119.80;;;61.60;;
24301;SDS011;12421;49.732;20.078;2022-12-15T20:41:14;126.50;;;60.60;;
24301;SDS011;12421;49.732;20.078;2022-12-15T20:51:28;117.20;;;63.40;;
24301;SDS011;12421;49.732;20.078;2022-12-15T21:01:35;105.60;;;55.90;;
24301;SDS011;12421;49.732;20.078;2022-12-15T21:11:46;98.60;;;52.50;;
24301;SDS011;12421;49.732;20.078;2022-12-15T21:21:51;95.60;;;48.10;;
24301;SDS011;12421;49.732;20.078;2022-12-15T21:31:58;114.60;;;56.10;;
24301;SDS011;12421;49.732;20.078;2022-12-15T21:42:03;94.40;;;50.90;;
24301;SDS011;12421;49.732;20.078;2022-12-15T21:52:10;116.00;;;56.20;;
24301;SDS011;12421;49.732;20.078;2022-12-15T22:12:25;107.70;;;58.50;;
24301;SDS011;12421;49.732;20.078;2022-12-15T22:22:30;104.00;;;52.80;;
24301;SDS011;12421;49.732;20.078;2022-12-15T22:32:34;96.20;;;49.80;;
24301;SDS011;12421;49.732;20.078;2022-12-15T22:42:39;102.40;;;55.60;;
24301;SDS011;12421;49.732;20.078;2022-12-15T22:52:46;110.80;;;57.80;;
24301;SDS011;12421;49.732;20.078;2022-12-15T23:02:51;113.60;;;56.70;;
24301;SDS011;12421;49.732;20.078;2022-12-15T23:12:56;92.40;;;47.40;;
24301;SDS011;12421;49.732;20.078;2022-12-15T23:23:02;105.40;;;53.60;;
24301;SDS011;12421;49.732;20.078;2022-12-15T23:33:07;98.20;;;52.90;;
24301;SDS011;12421;49.732;20.078;2022-12-15T23:43:11;86.60;;;44.20;;
24301;SDS011;12421;49.732;20.078;2022-12-15T23:53:16;110.80;;;59.10;;
